Time;durP1;ratioP1;P1;durP2;ratioP2;P2;SDS_P1;SDS_P2;PMS_P1;PMS_P2;Temp;Humidity;BMP_temperature;BMP_pressure;BME280_temperature;BME280_humidity;BME280_pressure;Samples;Min_cycle;Max_cycle;Signal;HPM_P1;HPM_P2
2022/06/14 00:01:05;;;;;;;9.75;6.53;;;;;;;24.75;44.45;101058.41;4205896;28;20059;-68
2022/06/14 00:03:07;;;;;;;8.75;6.55;;;;;;;24.76;44.27;101056.44;4203622;28;20040;-68
2022/06/14 00:05:08;;;;;;;9.68;6.30;;;;;;;24.76;44.18;101060.06;4205028;28;20376;-68
2022/06/14 00:07:12;;;;;;;9.70;6.05;;;;;;;24.76;44.41;101065.66;4204874;28;20089;-68
2022/06/14 00:09:14;;;;;;;8.38;6.70;;;;;;;24.76;44.22;101062.88;4204822;28;20074;-68
2022/06/14 00:11:18;;;;;;;11.43;6.53;;;;;;;24.75;44.34;101050.03;4200403;28;20041;-67
2022/06/14 00:13:21;;;;;;;9.68;6.88;;;;;;;24.74;44.22;101051.16;4205062;28;20102;-69
2022/06/14 00:15:23;;;;;;;12.90;6.55;;;;;;;24.74;43.99;101045.56;4201931;28;20444;-68
2022/06/14 00:17:24;;;;;;;11.38;6.70;;;;;;;24.71;43.82;101043.38;4205172;28;20501;-68
2022/06/14 00:19:26;;;;;;;12.43;6.53;;;;;;;24.74;44.21;101051.16;4201995;28;20111;-68
2022/06/14 00:21:34;;;;;;;8.57;6.95;;;;;;;24.65;43.99;101038.13;4201813;28;20031;-69
2022/06/14 00:23:37;;;;;;;7.95;6.70;;;;;;;24.74;44.08;101061.50;4201990;28;20105;-68
2022/06/14 00:25:43;;;;;;;11.15;6.63;;;;;;;24.73;44.14;101059.84;4201924;28;20102;-68
2022/06/14 00:27:48;;;;;;;8.73;6.40;;;;;;;24.71;44.04;101071.34;4203013;28;20536;-68
2022/06/14 00:29:49;;;;;;;7.82;6.18;;;;;;;24.72;43.92;101073.00;4198322;28;20082;-68
2022/06/14 00:31:51;;;;;;;8.30;6.22;;;;;;;24.70;43.92;101069.69;4204448;28;20074;-68
2022/06/14 00:33:53;;;;;;;6.88;5.72;;;;;;;24.73;44.03;101083.06;4201120;28;20052;-68
2022/06/14 00:36:04;;;;;;;6.65;6.03;;;;;;;24.73;44.02;101079.44;4203302;28;20040;-68
2022/06/14 00:38:05;;;;;;;7.18;6.40;;;;;;;24.74;43.75;101081.94;4204877;28;20637;-68
2022/06/14 00:40:13;;;;;;;9.15;6.68;;;;;;;24.71;43.78;101076.94;4199438;28;20040;-68
2022/06/14 00:42:20;;;;;;;8.55;6.18;;;;;;;24.73;43.83;101082.22;4204164;28;20097;-68
2022/06/14 00:44:24;;;;;;;7.15;6.28;;;;;;;24.71;44.14;101079.75;4199286;28;20036;-68
2022/06/14 00:46:48;;;;;;;7.72;6.20;;;;;;;24.72;44.00;101084.19;4202074;28;20056;-68
2022/06/14 00:48:58;;;;;;;7.18;6.28;;;;;;;24.72;43.70;101088.97;4203639;28;20032;-68
2022/06/14 00:51:10;;;;;;;7.47;5.95;;;;;;;24.73;44.00;101101.81;4201818;28;20045;-68
2022/06/14 00:53:28;;;;;;;9.77;6.22;;;;;;;24.71;43.72;101098.50;4202646;28;20036;-68
2022/06/14 00:55:34;;;;;;;7.97;6.45;;;;;;;24.73;43.69;101101.81;4203648;28;20024;-68
2022/06/14 00:57:41;;;;;;;7.90;6.65;;;;;;;24.73;43.94;101102.66;4203641;28;20048;-68
2022/06/14 00:59:53;;;;;;;6.75;6.05;;;;;;;24.73;43.72;101097.06;4213358;28;20097;-69
2022/06/14 01:02:03;;;;;;;6.68;6.07;;;;;;;24.73;43.66;101101.81;4207637;28;20036;-68
2022/06/14 01:04:23;;;;;;;8.07;6.97;;;;;;;24.70;43.69;101103.28;4209053;28;20044;-68
2022/06/14 01:06:45;;;;;;;10.52;6.47;;;;;;;24.70;43.79;101103.28;4209837;28;20094;-68
2022/06/14 01:09:08;;;;;;;7.07;6.38;;;;;;;24.72;43.72;101108.56;4205453;28;20048;-68
2022/06/14 01:11:18;;;;;;;10.13;6.60;;;;;;;24.70;43.60;101114.47;4204039;28;20085;-68
2022/06/14 01:13:21;;;;;;;7.72;6.25;;;;;;;24.72;43.65;101122.56;4214088;28;20085;-68
2022/06/14 01:15:32;;;;;;;6.72;5.90;;;;;;;24.71;43.87;101116.13;4212993;28;20039;-69
2022/06/14 01:17:46;;;;;;;9.13;6.57;;;;;;;24.66;43.69;101113.41;4203137;28;20040;-68
2022/06/14 01:19:50;;;;;;;6.97;5.68;;;;;;;24.67;43.68;101114.22;4202082;28;20128;-68
2022/06/14 01:22:03;;;;;;;6.72;6.13;;;;;;;24.69;43.65;101123.97;4204208;28;20450;-68
2022/06/14 01:24:07;;;;;;;9.35;6.88;;;;;;;24.71;43.87;101124.53;4202871;28;20028;-69
2022/06/14 01:26:19;;;;;;;8.18;5.63;;;;;;;24.70;43.85;101128.47;4203497;28;20086;-68
2022/06/14 01:28:24;;;;;;;7.00;6.30;;;;;;;24.72;43.66;101128.16;4201992;28;20112;-68
2022/06/14 01:30:31;;;;;;;6.93;6.22;;;;;;;24.71;43.40;101124.53;4212587;28;20105;-68
2022/06/14 01:32:43;;;;;;;7.30;6.45;;;;;;;24.66;43.76;101124.59;4211657;28;20090;-68
2022/06/14 01:34:50;;;;;;;7.70;6.55;;;;;;;24.66;43.70;101130.19;4201411;28;20048;-68
2022/06/14 01:36:52;;;;;;;7.90;6.20;;;;;;;24.73;43.81;101139.03;4208750;28;20116;-69
2022/06/14 01:38:59;;;;;;;7.35;6.20;;;;;;;24.70;43.74;101131.25;4202715;28;20032;-68
2022/06/14 01:41:27;;;;;;;7.07;6.15;;;;;;;24.72;43.64;101140.16;4207304;28;20513;-69
2022/06/14 01:43:43;;;;;;;6.70;6.00;;;;;;;24.71;43.66;101135.72;4204360;28;20036;-68
2022/06/14 01:46:02;;;;;;;;;;;;;;;24.70;43.53;101125.66;4200269;28;20074;-68
2022/06/14 01:48:22;;;;;;;6.32;5.60;;;;;;;24.76;43.38;101130.03;4199967;28;19913;-68
2022/06/14 01:53:28;;;;;;;6.15;5.55;;;;;;;24.75;43.12;101133.97;4210426;28;20094;-69
2022/06/14 01:55:49;;;;;;;7.38;6.18;;;;;;;24.63;43.25;101130.78;4208387;28;20529;-68
2022/06/14 01:58:02;;;;;;;8.15;7.15;;;;;;;24.71;43.45;101144.09;4212711;28;20058;-69
2022/06/14 02:00:15;;;;;;;6.68;5.50;;;;;;;24.71;43.49;101144.09;4206710;28;20433;-68
2022/06/14 02:02:31;;;;;;;11.40;6.43;;;;;;;24.72;43.71;101148.56;4213286;28;20061;-69
2022/06/14 02:04:54;;;;;;;7.50;6.50;;;;;;;24.70;43.63;101142.44;4214406;28;20528;-69
2022/06/14 02:07:39;;;;;;;5.97;5.47;;;;;;;24.70;43.49;101147.22;4216255;28;20040;-69
2022/06/14 02:10:02;;;;;;;7.30;5.57;;;;;;;24.73;43.61;101153.03;4172532;28;20433;-69
2022/06/14 02:12:08;;;;;;;6.45;5.80;;;;;;;24.74;43.85;101153.84;4210406;28;20126;-67
2022/06/14 02:14:22;;;;;;;7.70;6.00;;;;;;;24.71;43.70;101155.31;4210621;28;20040;-69
2022/06/14 02:16:33;;;;;;;7.13;5.65;;;;;;;24.65;43.93;101148.13;4212869;28;20113;-69
2022/06/14 02:18:50;;;;;;;6.32;5.35;;;;;;;24.68;43.86;101167.09;4211940;28;20052;-68
2022/06/14 02:21:16;;;;;;;7.78;5.53;;;;;;;24.70;44.08;101178.00;4203629;28;20352;-69
2022/06/14 02:23:20;;;;;;;6.47;5.88;;;;;;;24.70;44.38;101173.25;4206516;28;20082;-67
2022/06/14 02:25:34;;;;;;;7.13;6.03;;;;;;;24.70;44.31;101172.41;4206885;28;20097;-68
2022/06/14 02:27:40;;;;;;;6.68;5.97;;;;;;;24.71;44.28;101172.09;4206707;28;20086;-69
2022/06/14 02:29:50;;;;;;;12.02;5.40;;;;;;;24.69;44.47;101162.31;4204629;28;20029;-68
2022/06/14 02:32:00;;;;;;;6.13;5.53;;;;;;;24.71;44.59;101160.06;4215552;28;20044;-68
2022/06/14 02:34:20;;;;;;;14.60;5.25;;;;;;;24.70;44.31;101152.81;4216856;28;20073;-67
2022/06/14 02:36:39;;;;;;;10.52;5.80;;;;;;;24.72;44.41;101168.16;4199244;28;20089;-68
2022/06/14 02:38:52;;;;;;;7.43;5.85;;;;;;;24.73;44.29;101172.63;4214708;28;20117;-67
2022/06/14 02:41:22;;;;;;;10.15;6.13;;;;;;;24.74;44.73;101173.44;4215974;28;20487;-68
2022/06/14 02:44:05;;;;;;;5.80;5.20;;;;;;;24.71;44.75;101166.50;4207135;28;20043;-67
2022/06/14 02:46:15;;;;;;;7.45;5.45;;;;;;;24.74;44.31;101154.72;4209119;28;20488;-67
2022/06/14 02:48:23;;;;;;;6.28;5.60;;;;;;;24.75;44.28;101153.56;4206466;28;20338;-67
2022/06/14 02:50:35;;;;;;;6.85;5.57;;;;;;;24.76;44.50;101148.81;4201493;28;20036;-68
2022/06/14 02:52:42;;;;;;;6.20;5.53;;;;;;;24.78;44.70;101146.53;4199603;28;20044;-68
2022/06/14 02:54:45;;;;;;;8.57;6.05;;;;;;;24.78;44.56;101133.34;4199698;28;20454;-68
2022/06/14 02:57:12;;;;;;;8.82;5.93;;;;;;;24.77;44.19;101139.25;4200033;28;20040;-68
2022/06/14 02:59:23;;;;;;;7.47;5.75;;;;;;;24.77;44.39;101151.28;4196950;28;20040;-68
2022/06/14 03:01:31;;;;;;;6.80;6.05;;;;;;;24.77;44.19;101156.88;4199787;28;20052;-68
2022/06/14 03:03:52;;;;;;;7.47;5.72;;;;;;;24.75;44.38;101153.56;4199693;28;20476;-68
2022/06/14 03:06:04;;;;;;;6.30;5.70;;;;;;;24.75;44.33;101150.78;4199364;28;20438;-68
2022/06/14 03:08:16;;;;;;;6.13;5.55;;;;;;;24.77;44.33;101153.25;4202722;28;20036;-68
2022/06/14 03:10:18;;;;;;;6.60;5.95;;;;;;;24.76;44.55;101158.03;4202816;28;20045;-67
2022/06/14 03:12:34;;;;;;;9.75;6.25;;;;;;;24.77;44.59;101170.06;4203704;28;20036;-67
2022/06/14 03:14:57;;;;;;;6.72;6.03;;;;;;;24.76;44.19;101174.81;4199353;28;20479;-68
2022/06/14 03:17:18;;;;;;;6.90;5.57;;;;;;;24.77;44.39;101170.06;4199670;28;20483;-67
2022/06/14 03:19:32;;;;;;;6.72;6.10;;;;;;;24.75;44.55;101167.56;4201585;28;20480;-67
2022/06/14 03:21:43;;;;;;;9.00;5.63;;;;;;;24.78;44.06;101183.72;4199826;28;20036;-67
2022/06/14 03:24:11;;;;;;;8.38;5.82;;;;;;;24.76;44.21;101180.41;4200361;28;20044;-68
2022/06/14 03:26:37;;;;;;;6.70;5.93;;;;;;;24.75;44.36;101175.97;4199314;28;20078;-67
2022/06/14 03:28:51;;;;;;;7.90;5.85;;;;;;;24.77;44.19;101178.44;4199692;28;20565;-68
2022/06/14 03:31:05;;;;;;;9.40;5.72;;;;;;;24.76;44.37;101180.41;4200821;28;20024;-66
2022/06/14 03:33:29;;;;;;;6.20;5.60;;;;;;;24.78;44.26;101185.69;4206133;28;20040;-68
2022/06/14 03:35:36;;;;;;;10.00;6.63;;;;;;;24.75;44.27;101189.94;4198118;28;20044;-67
2022/06/14 03:37:37;;;;;;;8.45;5.95;;;;;;;24.70;44.06;101187.22;4198971;28;20117;-67
2022/06/14 03:39:50;;;;;;;7.05;5.65;;;;;;;24.75;44.40;101203.94;4198749;28;20098;-68
2022/06/14 03:41:53;;;;;;;6.28;5.68;;;;;;;24.77;43.90;101203.63;4198893;28;20094;-68
2022/06/14 03:43:58;;;;;;;6.40;5.80;;;;;;;24.75;43.91;101195.56;4199094;28;20113;-68
2022/06/14 03:46:09;;;;;;;6.55;5.55;;;;;;;24.75;43.71;101192.75;4198792;28;20125;-68
2022/06/14 03:48:12;;;;;;;6.18;5.57;;;;;;;24.75;43.79;101189.94;4198550;28;20036;-68
2022/06/14 03:50:23;;;;;;;6.47;5.88;;;;;;;24.76;43.91;101174.81;4199139;28;20045;-67
2022/06/14 03:52:55;;;;;;;5.85;5.28;;;;;;;24.74;43.90;101171.50;4199835;28;20044;-68
2022/06/14 03:55:41;;;;;;;7.55;5.78;;;;;;;24.74;44.00;101165.91;4201158;28;20040;-68
2022/06/14 03:58:02;;;;;;;6.10;5.43;;;;;;;24.73;44.01;101169.81;4199510;28;20037;-67
2022/06/14 04:00:32;;;;;;;6.13;5.55;;;;;;;24.76;43.98;101183.22;4208071;28;20875;-68
2022/06/14 04:02:53;;;;;;;6.85;5.88;;;;;;;24.76;43.81;101171.19;4203305;28;20095;-68
2022/06/14 04:04:58;;;;;;;7.38;6.15;;;;;;;24.76;43.81;101169.22;4215643;28;20437;-68
2022/06/14 04:07:08;;;;;;;;;;;;;;;24.74;43.83;101160.31;4215676;28;20128;-66
2022/06/14 04:09:46;;;;;;;6.00;5.40;;;;;;;24.77;43.78;101159.69;4215219;28;19912;-67
2022/06/14 04:12:15;;;;;;;6.07;5.55;;;;;;;24.76;43.73;101146.81;4177391;28;20037;-67
2022/06/14 04:14:44;;;;;;;6.18;5.57;;;;;;;24.76;43.56;101168.38;4207327;28;20445;-67
2022/06/14 04:17:21;;;;;;;6.05;5.53;;;;;;;24.74;43.49;101168.69;4198624;28;20521;-67
2022/06/14 04:19:42;;;;;;;6.22;5.63;;;;;;;24.75;43.85;101161.97;4198571;28;20036;-67
2022/06/14 04:22:01;;;;;;;9.05;6.28;;;;;;;24.76;43.46;101163.63;4207178;28;20044;-67
2022/06/14 04:24:30;;;;;;;6.05;5.55;;;;;;;24.74;43.51;101160.31;4214065;28;20036;-67
2022/06/14 04:26:50;;;;;;;5.88;5.38;;;;;;;24.73;43.68;101164.22;4215619;28;20105;-67
2022/06/14 04:29:04;;;;;;;6.47;5.88;;;;;;;24.66;43.48;101147.00;4213916;28;20112;-68
2022/06/14 04:31:13;;;;;;;6.82;6.10;;;;;;;24.72;43.35;101154.16;4213363;28;20031;-67
2022/06/14 04:33:34;;;;;;;6.40;5.80;;;;;;;24.72;43.63;101168.16;4212425;28;20044;-68
2022/06/14 04:35:50;;;;;;;6.35;5.85;;;;;;;24.72;43.62;101161.72;4214706;28;20441;-67
2022/06/14 04:38:02;;;;;;;6.60;6.00;;;;;;;24.71;43.53;101174.06;4213947;28;20360;-67
2022/06/14 04:40:06;;;;;;;6.07;5.43;;;;;;;24.74;43.27;101179.03;4198947;28;20114;-67
2022/06/14 04:42:13;;;;;;;5.75;5.15;;;;;;;24.64;43.37;101160.44;4205617;28;20073;-67
2022/06/14 04:44:25;;;;;;;6.72;6.10;;;;;;;24.53;43.52;101153.31;4202012;28;20082;-67
2022/06/14 04:46:34;;;;;;;5.93;5.43;;;;;;;24.71;43.36;101177.69;4199531;28;20568;-69
2022/06/14 04:48:56;;;;;;;6.10;5.60;;;;;;;24.69;43.57;101176.31;4201426;28;20020;-68
2022/06/14 04:51:18;;;;;;;6.45;5.85;;;;;;;24.65;43.30;101164.91;4214952;28;20483;-68
2022/06/14 04:53:38;;;;;;;6.53;5.93;;;;;;;24.70;43.42;101175.19;4213931;28;20066;-67
2022/06/14 04:55:50;;;;;;;5.95;5.45;;;;;;;24.71;43.34;101171.25;4214967;28;20040;-68
2022/06/14 04:58:09;;;;;;;6.25;5.65;;;;;;;24.68;43.35;101166.25;4209102;28;20027;-68
2022/06/14 05:00:13;;;;;;;6.00;5.40;;;;;;;24.69;43.15;101160.34;4206340;28;20055;-68
2022/06/14 05:02:44;;;;;;;6.13;5.53;;;;;;;24.68;43.18;101160.66;4207359;28;20036;-68
2022/06/14 05:04:58;;;;;;;5.85;5.35;;;;;;;24.61;43.06;101144.25;4206701;28;20089;-68
2022/06/14 05:07:08;;;;;;;5.97;5.47;;;;;;;24.68;43.23;101155.91;4214728;28;20043;-68
2022/06/14 05:09:17;;;;;;;6.20;5.60;;;;;;;24.68;43.21;101161.50;4213582;28;20028;-68
2022/06/14 05:11:24;;;;;;;6.20;5.60;;;;;;;24.66;43.03;101146.16;4212569;28;20044;-68
2022/06/14 05:13:40;;;;;;;6.05;5.38;;;;;;;24.66;43.00;101141.38;4212861;28;20082;-68
2022/06/14 05:16:01;;;;;;;6.57;5.90;;;;;;;24.66;42.97;101135.78;4213898;28;20044;-68
2022/06/14 05:18:14;;;;;;;5.72;5.22;;;;;;;24.67;42.97;101131.84;4213480;28;20036;-68
2022/06/14 05:20:45;;;;;;;5.60;5.10;;;;;;;24.65;43.00;101128.53;4207208;28;20110;-68
2022/06/14 05:22:58;;;;;;;5.72;5.22;;;;;;;24.67;42.71;101120.66;4206111;28;20077;-68
2022/06/14 05:25:00;;;;;;;5.78;5.10;;;;;;;24.67;42.87;101126.25;4212332;28;20032;-68
2022/06/14 05:27:20;;;;;;;6.13;5.55;;;;;;;24.67;42.82;101126.25;4216898;28;20044;-68
2022/06/14 05:29:33;;;;;;;5.45;4.95;;;;;;;24.62;42.67;101105.91;4218010;28;20101;-68
2022/06/14 05:31:49;;;;;;;6.45;5.85;;;;;;;24.65;42.71;101108.94;4218138;28;20089;-68
2022/06/14 05:34:16;;;;;;;5.93;5.43;;;;;;;24.64;42.88;101103.63;4216724;28;20028;-68
2022/06/14 05:36:27;;;;;;;5.68;5.18;;;;;;;24.65;42.52;101099.69;4214921;28;20048;-68
2022/06/14 05:38:52;;;;;;;5.50;5.00;;;;;;;24.63;42.48;101107.56;4216508;28;20501;-69
2022/06/14 05:40:58;;;;;;;6.13;5.53;;;;;;;24.64;42.42;101104.47;4216662;28;20040;-68
2022/06/14 05:43:12;;;;;;;5.32;4.82;;;;;;;24.64;42.25;101118.47;4209396;28;20620;-68
2022/06/14 05:45:21;;;;;;;5.70;5.10;;;;;;;24.63;42.29;101118.78;4205564;28;20040;-68
2022/06/14 05:47:49;;;;;;;5.43;4.97;;;;;;;24.60;42.42;101120.19;4205868;28;20048;-69
2022/06/14 05:50:02;;;;;;;5.95;5.45;;;;;;;24.64;42.67;101120.44;4218356;28;20035;-68
2022/06/14 05:52:34;;;;;;;5.18;4.78;;;;;;;24.62;42.34;101128.31;4217526;28;20479;-68
2022/06/14 05:54:46;;;;;;;5.15;4.75;;;;;;;24.61;42.32;101133.06;4217676;28;20101;-68
2022/06/14 05:57:19;;;;;;;5.10;4.70;;;;;;;24.59;42.47;101126.94;4216949;28;20372;-68
2022/06/14 05:59:31;;;;;;;5.55;5.05;;;;;;;24.61;42.05;101124.69;4197277;28;20036;-68
2022/06/14 06:01:38;;;;;;;5.35;4.95;;;;;;;24.61;42.33;101121.88;4215663;28;20039;-68
2022/06/14 06:03:54;;;;;;;5.28;4.78;;;;;;;24.59;42.28;101107.34;4204731;28;20158;-68
2022/06/14 06:06:10;;;;;;;5.10;4.60;;;;;;;24.58;42.62;101108.47;4205634;28;20028;-68
2022/06/14 06:08:29;;;;;;;5.05;4.65;;;;;;;24.59;42.50;101112.94;4217096;28;20032;-68
2022/06/14 06:10:38;;;;;;;5.45;4.95;;;;;;;24.52;42.18;101081.72;4217224;28;20101;-68
2022/06/14 06:12:45;;;;;;;6.25;5.10;;;;;;;24.58;42.02;101105.69;4216619;28;20077;-68
2022/06/14 06:14:52;;;;;;;5.25;4.75;;;;;;;24.58;42.09;101122.47;4216107;28;20036;-68
2022/06/14 06:17:03;;;;;;;4.78;4.38;;;;;;;24.58;42.23;101123.31;4216335;28;20028;-69
2022/06/14 06:19:23;;;;;;;5.10;4.60;;;;;;;24.58;42.07;101144.84;4217035;28;20040;-68
2022/06/14 06:21:33;;;;;;;4.95;4.55;;;;;;;24.58;42.09;101144.84;4215439;28;20044;-68
2022/06/14 06:23:44;;;;;;;5.32;4.88;;;;;;;24.56;41.82;101150.75;4216618;28;20098;-68
2022/06/14 06:25:52;;;;;;;5.72;4.63;;;;;;;24.50;41.87;101137.13;4216870;28;20430;-68
2022/06/14 06:28:06;;;;;;;4.75;4.20;;;;;;;24.52;41.59;101151.66;4216667;28;20032;-69
2022/06/14 06:30:17;;;;;;;4.97;4.47;;;;;;;24.49;42.02;101147.50;4214945;28;20041;-68
2022/06/14 06:32:20;;;;;;;4.72;4.32;;;;;;;24.47;41.94;101135.78;4217075;28;20044;-68
2022/06/14 06:34:25;;;;;;;5.28;4.78;;;;;;;24.55;41.81;101151.88;4214672;28;20438;-68
2022/06/14 06:36:29;;;;;;;;;;;;;;;24.52;41.67;101146.06;4205987;28;20125;-68
2022/06/14 06:38:33;;;;;;;5.35;4.63;;;;;;;24.32;41.46;101102.38;4204736;28;19916;-69
2022/06/14 06:41:49;;;;;;;5.00;4.60;;;;;;;24.57;41.55;101155.22;4199498;28;20036;-69
2022/06/14 06:43:21;;;;;;;6.35;4.50;;;;;;;24.55;41.59;101151.03;4214070;28;20364;-68
2022/06/14 06:45:38;;;;;;;4.90;4.50;;;;;;;24.56;41.59;101152.72;4215738;28;20097;-68
2022/06/14 06:47:50;;;;;;;4.60;4.20;;;;;;;24.54;41.38;101157.78;4216278;28;20047;-68
2022/06/14 06:50:16;;;;;;;6.07;4.75;;;;;;;24.52;41.41;101163.69;4215829;28;20070;-68
2022/06/14 06:52:24;;;;;;;;;;;;;;;24.51;41.63;101163.97;4216207;28;20077;-69
2022/06/14 06:54:32;;;;;;;5.30;4.65;;;;;;;24.55;41.42;101157.47;4199794;28;19913;-67
2022/06/14 06:56:41;;;;;;;4.82;4.43;;;;;;;24.54;41.38;101155.81;4206263;28;20094;-67
2022/06/14 06:59:00;;;;;;;4.82;4.43;;;;;;;24.53;41.54;101159.75;4207409;28;20352;-68
2022/06/14 07:01:13;;;;;;;4.45;4.05;;;;;;;24.50;41.51;101156.72;4216738;28;20097;-68
2022/06/14 07:03:26;;;;;;;4.75;4.35;;;;;;;24.51;41.43;101155.56;4212887;28;20032;-68
2022/06/14 07:05:28;;;;;;;4.25;3.92;;;;;;;24.48;41.60;101147.78;4216451;28;20106;-68
2022/06/14 07:07:53;;;;;;;4.95;4.55;;;;;;;24.42;41.49;101143.38;4213702;28;20028;-68
2022/06/14 07:10:00;;;;;;;5.97;4.47;;;;;;;24.48;41.12;101154.22;4199389;28;20430;-68
2022/06/14 07:12:07;;;;;;;4.75;4.35;;;;;;;24.48;41.29;101154.22;4204435;28;20406;-68
2022/06/14 07:14:16;;;;;;;4.75;4.35;;;;;;;24.41;41.38;101145.34;4215397;28;20089;-68
2022/06/14 07:16:50;;;;;;;4.63;4.22;;;;;;;24.46;41.35;101148.06;4206917;28;20044;-68
2022/06/14 07:19:06;;;;;;;4.88;4.47;;;;;;;24.47;41.16;101157.31;4204936;28;20032;-68
2022/06/14 07:21:12;;;;;;;4.50;4.10;;;;;;;24.49;41.16;101157.84;4199688;28;20040;-68
2022/06/14 07:23:45;;;;;;;4.40;4.00;;;;;;;24.47;41.07;101146.13;4212675;28;20453;-69
2022/06/14 07:26:24;;;;;;;4.47;4.07;;;;;;;24.48;41.12;101142.19;4182035;28;20045;-68
2022/06/14 07:28:43;;;;;;;4.40;4.00;;;;;;;24.47;41.06;101134.94;4202331;28;20438;-68
2022/06/14 07:30:50;;;;;;;4.45;4.05;;;;;;;24.45;40.85;101123.22;4215714;28;20036;-68
2022/06/14 07:32:55;;;;;;;4.55;4.15;;;;;;;24.46;41.02;101124.88;4213516;28;20024;-69
2022/06/14 07:34:59;;;;;;;4.90;4.40;;;;;;;24.46;40.94;101138.84;4215993;28;20028;-68
2022/06/14 07:37:21;;;;;;;4.38;4.07;;;;;;;24.45;40.88;101134.41;4208532;28;20032;-68
2022/06/14 07:39:38;;;;;;;4.20;3.90;;;;;;;24.43;40.72;101125.50;4208987;28;20093;-68
2022/06/14 07:42:02;;;;;;;4.30;3.90;;;;;;;24.42;41.01;101123.81;4215237;28;20036;-68
2022/06/14 07:44:30;;;;;;;4.15;3.58;;;;;;;24.43;40.92;101136.69;4213506;28;20375;-68
2022/06/14 07:46:55;;;;;;;4.38;3.97;;;;;;;24.42;40.75;101135.00;4215183;28;20122;-68
2022/06/14 07:49:06;;;;;;;3.88;3.47;;;;;;;24.44;40.71;101149.53;4198218;28;20036;-68
2022/06/14 07:51:24;;;;;;;4.40;4.00;;;;;;;24.43;40.84;101142.28;4198965;28;20036;-68
2022/06/14 07:53:39;;;;;;;5.43;3.80;;;;;;;24.42;40.47;101143.38;4213319;28;20044;-69
2022/06/14 07:55:55;;;;;;;3.95;3.63;;;;;;;24.41;40.44;101155.72;4211894;28;20044;-69
2022/06/14 07:58:34;;;;;;;4.72;4.32;;;;;;;24.34;40.74;101133.69;4204723;28;20040;-67
2022/06/14 08:01:10;;;;;;;5.13;4.28;;;;;;;24.40;40.63;101140.06;4204220;28;20117;-68
2022/06/14 08:03:20;;;;;;;4.13;3.72;;;;;;;24.41;40.37;101138.94;4213741;28;20082;-68
2022/06/14 08:05:28;;;;;;;4.13;3.83;;;;;;;24.39;40.71;101130.84;4201299;28;20105;-68
2022/06/14 08:07:31;;;;;;;4.15;3.83;;;;;;;24.33;40.51;101124.47;4213208;28;20032;-68
2022/06/14 08:09:58;;;;;;;4.00;3.67;;;;;;;24.32;40.78;101119.97;4213701;28;20564;-68
2022/06/14 08:12:06;;;;;;;4.28;3.85;;;;;;;24.34;40.53;101128.09;4198815;28;20114;-68
2022/06/14 08:14:34;;;;;;;4.03;3.72;;;;;;;24.37;40.35;101129.47;4214542;28;20098;-68
2022/06/14 08:16:37;;;;;;;3.72;3.42;;;;;;;24.39;40.67;101135.63;4178361;28;20099;-67
2022/06/14 08:18:47;;;;;;;3.78;3.47;;;;;;;24.37;40.53;101138.69;4185985;28;20109;-68
2022/06/14 08:20:51;;;;;;;4.07;3.78;;;;;;;24.37;40.21;101140.66;4198776;28;20020;-68
2022/06/14 08:23:02;;;;;;;3.55;3.25;;;;;;;24.36;40.37;101137.00;4213974;28;20032;-68
2022/06/14 08:25:11;;;;;;;3.67;3.38;;;;;;;24.37;40.26;101135.06;4213489;28;20972;-68
2022/06/14 08:27:23;;;;;;;3.80;3.50;;;;;;;24.33;40.22;101132.84;4214220;28;20081;-68
2022/06/14 08:29:28;;;;;;;3.60;3.30;;;;;;;24.37;40.27;101143.44;4213990;28;20376;-68
2022/06/14 08:31:42;;;;;;;4.25;3.88;;;;;;;24.32;40.28;101131.16;4215024;28;20036;-68
2022/06/14 08:33:53;;;;;;;4.65;4.10;;;;;;;24.35;40.03;101129.75;4213017;28;20036;-68
2022/06/14 08:36:02;;;;;;;4.13;3.55;;;;;;;24.32;40.29;101125.56;4201158;28;20039;-68
2022/06/14 08:38:37;;;;;;;3.75;3.45;;;;;;;24.32;39.97;101130.34;4204144;28;20098;-68
2022/06/14 08:40:58;;;;;;;3.80;3.50;;;;;;;24.34;40.21;101130.88;4212603;28;20078;-68
2022/06/14 08:43:09;;;;;;;3.67;3.38;;;;;;;24.30;40.15;101121.44;4197740;28;20040;-68
2022/06/14 08:45:25;;;;;;;4.35;3.95;;;;;;;24.33;40.25;101124.47;4210836;28;20536;-68
2022/06/14 08:47:41;;;;;;;3.83;3.53;;;;;;;24.33;40.20;101115.25;4214684;28;20109;-68
2022/06/14 08:50:03;;;;;;;3.72;3.42;;;;;;;24.30;40.04;101105.47;4213776;28;20044;-68
2022/06/14 08:52:57;;;;;;;3.75;3.45;;;;;;;24.28;40.01;101096.56;4214623;28;20081;-68
2022/06/14 08:55:17;;;;;;;3.50;3.20;;;;;;;24.29;40.04;101095.44;4205503;28;20041;-68
2022/06/14 08:57:27;;;;;;;3.50;3.20;;;;;;;24.32;39.82;101106.00;4207595;28;20077;-68
2022/06/14 08:59:47;;;;;;;4.05;3.67;;;;;;;24.27;40.12;101100.47;4213090;28;20113;-68
2022/06/14 09:02:12;;;;;;;3.63;3.00;;;;;;;24.29;39.86;101098.22;4211957;28;20036;-68
2022/06/14 09:04:35;;;;;;;3.78;3.47;;;;;;;24.27;40.08;101094.88;4197799;28;20036;-68
2022/06/14 09:06:57;;;;;;;3.40;3.10;;;;;;;24.28;40.01;101096.56;4200524;28;20028;-68
2022/06/14 09:09:44;;;;;;;3.25;3.03;;;;;;;24.27;39.96;101110.81;4211414;28;20479;-68
2022/06/14 09:11:48;;;;;;;4.35;3.47;;;;;;;24.30;39.56;101115.84;4197507;28;20040;-68
2022/06/14 09:14:14;;;;;;;3.70;3.40;;;;;;;24.24;39.53;101106.69;4210259;28;20093;-68
2022/06/14 09:16:38;;;;;;;3.88;3.50;;;;;;;24.28;39.34;101123.66;4203597;28;20365;-68
2022/06/14 09:18:54;;;;;;;3.17;2.90;;;;;;;24.27;39.64;101128.44;4197911;28;20131;-68
2022/06/14 09:20:56;;;;;;;3.33;3.03;;;;;;;24.27;39.65;101122.84;4210494;28;20093;-68
2022/06/14 09:23:25;;;;;;;3.58;3.03;;;;;;;24.25;39.61;101130.72;4214164;28;20036;-68
2022/06/14 09:25:51;;;;;;;3.50;3.20;;;;;;;24.23;39.44;101143.31;4192158;28;20111;-68
2022/06/14 09:28:18;;;;;;;3.80;3.15;;;;;;;24.23;39.42;101143.31;4211563;28;20040;-68
2022/06/14 09:30:39;;;;;;;3.45;3.15;;;;;;;24.24;39.58;101140.25;4214441;28;20024;-68
2022/06/14 09:33:15;;;;;;;3.75;3.45;;;;;;;24.21;39.38;101152.00;4213529;28;20093;-68
2022/06/14 09:35:46;;;;;;;3.42;3.10;;;;;;;24.21;39.37;101140.84;4205466;28;20036;-67
2022/06/14 09:38:35;;;;;;;3.40;3.10;;;;;;;24.19;39.50;101120.75;4203719;28;20048;-68
2022/06/14 09:41:27;;;;;;;3.22;2.90;;;;;;;24.21;39.52;101129.66;4181843;28;20091;-68
2022/06/14 09:44:13;;;;;;;3.13;2.80;;;;;;;24.20;39.40;101135.53;4185802;28;20098;-68
2022/06/14 09:46:29;;;;;;;3.47;3.17;;;;;;;24.20;39.40;101139.16;4213434;28;20032;-68
2022/06/14 09:49:00;;;;;;;3.40;3.10;;;;;;;24.18;39.24;101141.41;4213827;28;20445;-68
2022/06/14 09:51:37;;;;;;;3.25;2.97;;;;;;;24.18;39.04;101141.41;4213099;28;20070;-68
2022/06/14 09:54:00;;;;;;;3.17;2.95;;;;;;;24.18;39.12;101123.81;4199729;28;20044;-68
2022/06/14 09:56:22;;;;;;;3.35;3.05;;;;;;;24.17;39.30;101117.38;4212730;28;20044;-68
2022/06/14 09:58:51;;;;;;;3.33;2.70;;;;;;;24.15;39.09;101111.28;4211596;28;20044;-68
2022/06/14 10:01:08;;;;;;;3.08;2.88;;;;;;;24.15;39.12;101114.06;4213461;28;20048;-68
2022/06/14 10:03:25;;;;;;;5.13;3.10;;;;;;;24.15;39.02;101116.88;4214118;28;20047;-68
2022/06/14 10:06:04;;;;;;;3.67;2.97;;;;;;;24.13;39.02;101107.94;4212108;28;20085;-68
2022/06/14 10:08:20;;;;;;;3.38;3.08;;;;;;;24.13;38.93;101105.13;4213965;28;20085;-68
2022/06/14 10:10:35;;;;;;;3.33;3.03;;;;;;;24.15;38.90;101118.84;4213542;28;20044;-68
2022/06/14 10:13:05;;;;;;;2.75;2.55;;;;;;;24.13;39.13;101124.72;4205053;28;20036;-67
2022/06/14 10:15:24;;;;;;;3.22;2.92;;;;;;;24.14;38.61;101117.97;4207691;28;20044;-67
2022/06/14 10:17:46;;;;;;;3.00;2.70;;;;;;;24.15;38.97;101118.84;4217879;28;20483;-68
2022/06/14 10:20:03;;;;;;;2.95;2.75;;;;;;;24.04;38.74;101118.09;4217194;28;20442;-68
2022/06/14 10:22:18;;;;;;;2.95;2.75;;;;;;;24.11;38.80;101129.78;4213097;28;20040;-68
2022/06/14 10:24:33;;;;;;;2.92;2.63;;;;;;;24.11;38.92;101135.38;4217270;28;20078;-67
2022/06/14 10:29:36;;;;;;;3.00;2.75;;;;;;;24.12;38.92;101137.03;4216881;28;20449;-67
2022/06/14 10:32:25;;;;;;;3.00;2.80;;;;;;;24.11;38.83;101140.97;4207016;28;20029;-67
2022/06/14 10:34:36;;;;;;;2.95;2.75;;;;;;;24.10;38.50;101144.91;4185018;28;20045;-67
2022/06/14 10:36:48;;;;;;;4.35;2.20;;;;;;;24.12;38.69;101147.38;4204805;28;20109;-67
2022/06/14 10:39:34;;;;;;;2.92;2.30;;;;;;;24.09;38.63;101162.78;4214827;28;20040;-67